Time;durP1;ratioP1;P1;durP2;ratioP2;P2;SDS_P1;SDS_P2;PMS_P1;PMS_P2;Temp;Humidity;BMP_temperature;BMP_pressure;BME280_temperature;BME280_humidity;BME280_pressure;Samples;Min_cycle;Max_cycle;Signal;HPM_P1;HPM_P2
2022/12/01 00:00:43;;;;;;;21.20;11.68;;;7.00;99.90;;;;;;5052119;28;20579;-55
2022/12/01 00:03:09;;;;;;;17.05;10.60;;;7.00;99.90;;;;;;5052326;28;20177;-52
2022/12/01 00:05:35;;;;;;;21.00;11.77;;;7.00;99.90;;;;;;5052150;28;20166;-46
2022/12/01 00:08:01;;;;;;;20.40;12.07;;;6.90;99.90;;;;;;5052667;28;20619;-52
2022/12/01 00:10:27;;;;;;;20.00;11.52;;;6.90;99.90;;;;;;5052147;28;20634;-56
2022/12/01 00:12:53;;;;;;;18.50;12.07;;;6.90;99.90;;;;;;5052045;28;21039;-53
2022/12/01 00:15:19;;;;;;;18.95;10.82;;;6.90;99.90;;;;;;5052112;28;20170;-55
2022/12/01 00:17:46;;;;;;;21.67;12.45;;;6.90;99.90;;;;;;5052102;28;20685;-47
2022/12/01 00:20:13;;;;;;;22.02;12.02;;;6.90;99.90;;;;;;5052189;28;20225;-56
2022/12/01 00:22:45;;;;;;;21.13;12.52;;;7.00;99.90;;;;;;5051932;28;20178;-54
2022/12/01 00:25:12;;;;;;;20.77;12.18;;;6.90;99.90;;;;;;5051916;28;20585;-54
2022/12/01 00:27:38;;;;;;;19.67;11.95;;;6.90;99.90;;;;;;5051885;28;20167;-53
2022/12/01 00:30:05;;;;;;;22.98;12.90;;;6.90;99.90;;;;;;5051842;28;20687;-46
2022/12/01 00:32:31;;;;;;;23.58;13.02;;;6.90;99.90;;;;;;5052172;28;20182;-52
2022/12/01 00:34:57;;;;;;;22.83;14.27;;;6.90;99.90;;;;;;5052071;28;20205;-51
2022/12/01 00:37:22;;;;;;;23.48;13.80;;;7.00;99.90;;;;;;5051836;28;20170;-58
2022/12/01 00:39:48;;;;;;;24.63;13.60;;;6.90;99.90;;;;;;5051632;28;20205;-52
2022/12/01 00:42:13;;;;;;;25.58;13.98;;;6.90;99.90;;;;;;5051702;28;20163;-53
2022/12/01 00:44:39;;;;;;;28.23;14.63;;;6.90;99.90;;;;;;5051545;28;20213;-49
2022/12/01 00:47:05;;;;;;;22.83;14.25;;;6.80;99.90;;;;;;5051651;28;20253;-46
2022/12/01 00:49:31;;;;;;;24.02;13.57;;;6.90;99.90;;;;;;5051935;28;20217;-46
2022/12/01 00:51:57;;;;;;;24.85;14.02;;;6.90;99.90;;;;;;5052233;28;20259;-46
2022/12/01 00:54:22;;;;;;;23.27;13.43;;;6.90;99.90;;;;;;5051585;28;20654;-46
2022/12/01 00:56:48;;;;;;;24.55;13.68;;;7.00;99.90;;;;;;5051593;28;20167;-46
2022/12/01 00:59:13;;;;;;;28.30;14.10;;;6.90;99.90;;;;;;5051722;28;20171;-46
2022/12/01 01:01:39;;;;;;;26.45;13.98;;;7.00;99.90;;;;;;5051318;28;20856;-48
2022/12/01 01:04:05;;;;;;;27.77;14.35;;;7.00;99.90;;;;;;5051299;28;20213;-47
2022/12/01 01:06:31;;;;;;;26.98;13.65;;;6.90;99.90;;;;;;5052027;28;20630;-46
2022/12/01 01:08:56;;;;;;;23.52;13.45;;;6.90;99.90;;;;;;5051424;28;20206;-46
2022/12/01 01:11:22;;;;;;;26.48;13.95;;;6.90;99.90;;;;;;5054689;28;20212;-54
2022/12/01 01:13:48;;;;;;;27.52;14.30;;;7.00;99.90;;;;;;5055454;28;20635;-46
2022/12/01 01:16:16;;;;;;;29.10;13.63;;;6.90;99.90;;;;;;5055444;28;20254;-51
2022/12/01 01:18:42;;;;;;;23.77;14.20;;;6.80;99.90;;;;;;5055381;28;20170;-49
2022/12/01 01:21:11;;;;;;;26.42;15.48;;;6.90;99.90;;;;;;5055348;28;20217;-45
2022/12/01 01:23:37;;;;;;;29.25;15.20;;;7.00;99.90;;;;;;5055298;28;20216;-46
2022/12/01 01:26:06;;;;;;;26.30;14.70;;;6.90;99.90;;;;;;5055373;28;20629;-46
2022/12/01 01:28:32;;;;;;;30.27;14.98;;;6.90;99.90;;;;;;5055624;28;20216;-45
2022/12/01 01:30:58;;;;;;;29.30;15.40;;;6.90;99.90;;;;;;5055698;28;20171;-45
2022/12/01 01:33:23;;;;;;;29.88;16.08;;;6.90;99.90;;;;;;5037227;28;20170;-45
2022/12/01 01:35:49;;;;;;;32.50;16.20;;;6.90;99.90;;;;;;5055090;28;20165;-46
2022/12/01 01:38:15;;;;;;;32.58;16.48;;;7.00;99.90;;;;;;5055004;28;20527;-46
2022/12/01 01:40:45;;;;;;;30.52;16.67;;;6.90;99.90;;;;;;5055079;28;20206;-46
2022/12/01 01:43:35;;;;;;;33.53;16.42;;;6.80;99.90;;;;;;5055207;28;20512;-46
2022/12/01 01:46:01;;;;;;;33.67;17.45;;;6.90;99.90;;;;;;5055364;28;20171;-46
2022/12/01 01:48:26;;;;;;;35.75;17.30;;;7.00;99.90;;;;;;5054828;28;20169;-46
2022/12/01 01:50:52;;;;;;;33.17;16.40;;;6.90;99.90;;;;;;5054779;28;20175;-46
2022/12/01 01:53:17;;;;;;;34.00;17.27;;;6.90;99.90;;;;;;5054713;28;20171;-46
2022/12/01 01:55:43;;;;;;;33.15;16.67;;;6.80;99.90;;;;;;5054644;28;20173;-45
2022/12/01 01:58:10;;;;;;;32.30;17.02;;;6.80;99.90;;;;;;5054622;28;20167;-46
2022/12/01 02:00:39;;;;;;;32.97;16.88;;;6.90;99.90;;;;;;5054596;28;20231;-46
2022/12/01 02:03:06;;;;;;;31.90;17.20;;;6.80;99.90;;;;;;5054674;28;20162;-45
2022/12/01 02:05:34;;;;;;;36.47;17.00;;;6.80;99.90;;;;;;5054746;28;20266;-46
2022/12/01 02:08:02;;;;;;;26.45;14.43;;;6.80;99.90;;;;;;5054820;28;20209;-45
2022/12/01 02:10:44;;;;;;;30.42;16.42;;;6.80;99.90;;;;;;5054820;28;20174;-46
2022/12/01 02:13:32;;;;;;;33.95;16.75;;;6.70;99.90;;;;;;5054376;28;20221;-46
2022/12/01 02:16:24;;;;;;;30.73;16.20;;;6.70;99.90;;;;;;5054981;28;20174;-46
2022/12/01 02:18:59;;;;;;;31.65;15.65;;;6.80;99.90;;;;;;5054247;28;20512;-45
2022/12/01 02:21:33;;;;;;;30.00;14.98;;;6.80;99.90;;;;;;5053652;28;20677;-47
2022/12/01 02:24:27;;;;;;;34.95;16.45;;;6.70;99.90;;;;;;5055016;28;20604;-46
2022/12/01 02:27:02;;;;;;;27.58;15.10;;;6.80;99.90;;;;;;5054094;28;20167;-45
2022/12/01 02:29:39;;;;;;;34.80;16.27;;;6.70;99.90;;;;;;5054434;28;20535;-46
2022/12/01 02:32:33;;;;;;;30.48;16.08;;;6.80;99.90;;;;;;5053977;28;20220;-46
2022/12/01 02:35:36;;;;;;;29.42;15.80;;;6.80;99.90;;;;;;5054308;28;20166;-46
2022/12/01 02:38:16;;;;;;;31.48;15.73;;;6.80;99.90;;;;;;5054027;28;20171;-46
2022/12/01 02:40:48;;;;;;;32.72;16.55;;;6.80;99.90;;;;;;5053836;28;20206;-46
2022/12/01 02:43:46;;;;;;;31.90;15.65;;;6.70;99.90;;;;;;5053781;28;20163;-46
2022/12/01 02:46:21;;;;;;;28.45;14.60;;;6.80;99.90;;;;;;5015872;28;20658;-46
2022/12/01 02:48:50;;;;;;;29.80;14.65;;;6.80;99.90;;;;;;5036088;28;20547;-46
2022/12/01 02:51:24;;;;;;;28.25;14.65;;;6.90;99.90;;;;;;5053750;28;20594;-45
2022/12/01 02:53:50;;;;;;;28.60;15.25;;;6.80;99.90;;;;;;5053875;28;20171;-46
2022/12/01 02:56:20;;;;;;;34.00;16.33;;;6.70;99.90;;;;;;5053542;28;20565;-45
2022/12/01 02:58:46;;;;;;;30.30;15.00;;;6.70;99.90;;;;;;5053463;28;20163;-45
2022/12/01 03:01:23;;;;;;;33.95;15.90;;;6.70;99.90;;;;;;5053280;28;20221;-45
2022/12/01 03:04:15;;;;;;;30.65;15.32;;;6.80;99.90;;;;;;5053456;28;20162;-46
2022/12/01 03:07:10;;;;;;;31.00;14.45;;;6.80;99.90;;;;;;5015386;28;20179;-46
2022/12/01 03:10:11;;;;;;;37.63;17.17;;;6.80;99.90;;;;;;5053306;28;20175;-46
2022/12/01 03:12:44;;;;;;;39.83;17.00;;;6.70;99.90;;;;;;5053327;28;20167;-46
2022/12/01 03:15:17;;;;;;;34.40;15.65;;;6.80;99.90;;;;;;5053319;28;20166;-45
2022/12/01 03:17:53;;;;;;;31.83;16.48;;;6.80;99.90;;;;;;5053188;28;20162;-45
2022/12/01 03:20:26;;;;;;;34.47;16.92;;;6.80;99.90;;;;;;5053349;28;20206;-46
2022/12/01 03:22:58;;;;;;;38.25;18.10;;;6.70;99.90;;;;;;5053067;28;20617;-48
2022/12/01 03:25:26;;;;;;;41.45;19.13;;;6.70;99.90;;;;;;5053137;28;20167;-54
2022/12/01 03:27:55;;;;;;;50.95;20.38;;;6.80;99.90;;;;;;5052900;28;20623;-54
2022/12/01 03:30:25;;;;;;;49.45;20.10;;;6.70;99.90;;;;;;5052925;28;20544;-55
2022/12/01 03:32:57;;;;;;;47.97;21.50;;;6.70;99.90;;;;;;5052022;28;20220;-54
2022/12/01 03:35:29;;;;;;;49.15;20.95;;;6.80;99.90;;;;;;5053096;28;20175;-46
2022/12/01 03:38:05;;;;;;;56.03;22.17;;;6.80;99.90;;;;;;5052833;28;20244;-51
2022/12/01 03:40:36;;;;;;;51.50;21.85;;;6.80;99.90;;;;;;5053044;28;20202;-50
2022/12/01 03:43:18;;;;;;;53.50;23.10;;;6.70;99.90;;;;;;5052954;28;20170;-54
2022/12/01 03:45:55;;;;;;;49.55;20.60;;;6.70;99.90;;;;;;5052642;28;20162;-53
2022/12/01 03:48:23;;;;;;;50.15;20.30;;;6.70;99.90;;;;;;5052604;28;20170;-53
2022/12/01 03:51:12;;;;;;;48.28;21.75;;;6.70;99.90;;;;;;5052806;28;20167;-55
2022/12/01 03:54:01;;;;;;;45.67;19.48;;;6.70;99.90;;;;;;5052757;28;20166;-48
2022/12/01 03:56:35;;;;;;;56.25;21.38;;;6.80;99.90;;;;;;5052767;28;20166;-58
2022/12/01 03:59:03;;;;;;;48.33;19.95;;;6.70;99.90;;;;;;5052838;28;20167;-50
2022/12/01 04:01:32;;;;;;;49.78;19.75;;;6.70;99.90;;;;;;5052525;28;20237;-58
2022/12/01 04:04:10;;;;;;;54.65;21.77;;;6.70;99.90;;;;;;5052703;28;20703;-51
2022/12/01 04:06:36;;;;;;;49.33;19.80;;;6.80;99.90;;;;;;5052483;28;20573;-55
2022/12/01 04:09:02;;;;;;;47.67;20.30;;;6.70;99.90;;;;;;5052640;28;20224;-45
2022/12/01 04:14:11;;;;;;;53.80;21.38;;;6.60;99.90;;;;;;5052139;28;20177;-55
2022/12/01 04:16:37;;;;;;;57.47;25.15;;;6.60;99.90;;;;;;5052239;28;20171;-56
2022/12/01 04:19:03;;;;;;;58.90;22.33;;;6.70;99.90;;;;;;5052078;28;20167;-45
2022/12/01 04:21:28;;;;;;;56.97;21.42;;;6.70;99.90;;;;;;5052285;28;20574;-45
2022/12/01 04:24:00;;;;;;;61.28;22.73;;;6.50;99.90;;;;;;5052234;28;20163;-46
2022/12/01 04:26:30;;;;;;;60.70;22.45;;;6.60;99.90;;;;;;5052192;28;20175;-45
2022/12/01 04:28:57;;;;;;;65.78;22.75;;;6.60;99.90;;;;;;5051868;28;20181;-46
2022/12/01 04:31:22;;;;;;;53.38;22.25;;;6.50;99.90;;;;;;5051887;28;20162;-45
2022/12/01 04:33:48;;;;;;;45.80;19.42;;;6.60;99.90;;;;;;5051829;28;20671;-46
2022/12/01 04:36:14;;;;;;;65.28;23.65;;;6.50;99.90;;;;;;5052012;28;20544;-45
2022/12/01 04:38:39;;;;;;;57.83;21.42;;;6.60;99.90;;;;;;5051906;28;20170;-45
2022/12/01 04:41:12;;;;;;;44.03;18.33;;;6.50;99.90;;;;;;5051746;28;20214;-45
2022/12/01 04:43:37;;;;;;;54.58;21.75;;;6.60;99.90;;;;;;5051597;28;20187;-46
2022/12/01 04:46:04;;;;;;;55.70;22.58;;;6.60;99.90;;;;;;5051613;28;20167;-46
2022/12/01 04:48:30;;;;;;;55.58;22.77;;;6.60;99.90;;;;;;5052311;28;20167;-46
2022/12/01 04:50:56;;;;;;;66.75;22.60;;;6.50;99.90;;;;;;5051668;28;20550;-46
2022/12/01 04:53:22;;;;;;;64.32;24.50;;;6.50;99.90;;;;;;5051618;28;20171;-46
2022/12/01 04:55:47;;;;;;;50.78;20.75;;;6.60;99.90;;;;;;5051890;28;20202;-45
2022/12/01 04:58:13;;;;;;;61.03;22.05;;;6.60;99.90;;;;;;5051547;28;20250;-45
2022/12/01 05:00:38;;;;;;;45.50;18.27;;;6.50;99.90;;;;;;5051289;28;20693;-45
2022/12/01 05:03:04;;;;;;;54.53;21.35;;;6.40;99.90;;;;;;5051657;28;20630;-46
2022/12/01 05:05:30;;;;;;;55.55;21.75;;;6.40;99.90;;;;;;5051953;28;20192;-45
2022/12/01 05:07:57;;;;;;;58.95;22.75;;;6.50;99.90;;;;;;5051672;28;20241;-46
2022/12/01 05:10:23;;;;;;;64.25;22.80;;;6.40;99.90;;;;;;5051379;28;20178;-45
2022/12/01 05:12:48;;;;;;;60.47;22.88;;;6.50;99.90;;;;;;5051322;28;20166;-47
2022/12/01 05:15:15;;;;;;;58.15;22.38;;;6.50;99.90;;;;;;5051633;28;20233;-46
2022/12/01 05:17:40;;;;;;;54.78;22.50;;;6.50;99.90;;;;;;5051528;28;20171;-47
2022/12/01 05:22:51;;;;;;;62.80;24.60;;;6.30;99.90;;;;;;5051384;28;20206;-46
2022/12/01 05:25:17;;;;;;;67.32;23.92;;;6.40;99.90;;;;;;5051107;28;20167;-51
2022/12/01 05:27:43;;;;;;;54.22;21.15;;;6.40;99.90;;;;;;5051271;28;20178;-51
2022/12/01 05:30:09;;;;;;;53.00;20.75;;;6.30;99.90;;;;;;5051269;28;20274;-56
2022/12/01 05:32:35;;;;;;;58.65;23.58;;;6.40;99.90;;;;;;5051257;28;20166;-57
2022/12/01 05:35:00;;;;;;;56.88;21.05;;;6.40;99.90;;;;;;5051554;28;20167;-54
2022/12/01 05:37:32;;;;;;;58.80;23.67;;;6.40;99.90;;;;;;5051571;28;20171;-51
2022/12/01 05:39:57;;;;;;;53.35;22.15;;;6.50;99.90;;;;;;5051737;28;20214;-49
2022/12/01 05:42:23;;;;;;;58.15;22.00;;;6.40;99.90;;;;;;5051179;28;20167;-50
2022/12/01 05:44:48;;;;;;;61.10;24.70;;;6.50;99.90;;;;;;5051162;28;20182;-53
2022/12/01 05:47:14;;;;;;;53.65;20.80;;;6.30;99.90;;;;;;5051078;28;20198;-55
2022/12/01 05:49:39;;;;;;;51.08;21.80;;;6.50;99.90;;;;;;5033197;28;20171;-53
2022/12/01 05:52:05;;;;;;;55.55;21.73;;;6.40;99.90;;;;;;5033213;28;20515;-46
2022/12/01 05:54:30;;;;;;;62.38;23.50;;;6.40;99.90;;;;;;5051499;28;20508;-46
2022/12/01 05:56:56;;;;;;;50.30;21.00;;;6.40;99.90;;;;;;5053678;28;20169;-46
2022/12/01 05:59:21;;;;;;;52.38;21.35;;;6.50;99.90;;;;;;5036866;28;20527;-46
2022/12/01 06:01:47;;;;;;;44.97;20.15;;;6.50;99.90;;;;;;5054417;28;20225;-47
2022/12/01 06:04:13;;;;;;;40.58;19.02;;;6.40;99.90;;;;;;5054655;28;20171;-46
2022/12/01 06:06:38;;;;;;;47.25;22.15;;;6.30;99.90;;;;;;5054635;28;20206;-46
2022/12/01 06:09:04;;;;;;;42.92;20.25;;;6.40;99.90;;;;;;5036534;28;20265;-47
2022/12/01 06:11:29;;;;;;;34.20;17.95;;;6.30;99.90;;;;;;5054778;28;20175;-46
2022/12/01 06:13:55;;;;;;;44.42;18.23;;;6.30;99.90;;;;;;5054501;28;20249;-47
2022/12/01 06:16:21;;;;;;;25.50;11.52;;;6.40;99.90;;;;;;5054625;28;20269;-45
2022/12/01 06:18:46;;;;;;;36.70;15.77;;;6.30;99.90;;;;;;5054366;28;20171;-48
2022/12/01 06:21:12;;;;;;;29.48;12.88;;;6.40;99.90;;;;;;5054172;28;20344;-46
2022/12/01 06:23:37;;;;;;;38.20;17.00;;;6.30;99.90;;;;;;5054212;28;20163;-46
2022/12/01 06:26:03;;;;;;;32.05;18.10;;;6.30;99.90;;;;;;5054069;28;20186;-46
2022/12/01 06:28:29;;;;;;;38.20;17.73;;;6.40;99.90;;;;;;5054751;28;20178;-46
2022/12/01 06:30:55;;;;;;;35.60;17.85;;;6.30;99.90;;;;;;5054066;28;20194;-46
2022/12/01 06:33:20;;;;;;;34.05;17.23;;;6.30;99.90;;;;;;5053889;28;20270;-47
2022/12/01 06:35:46;;;;;;;33.45;18.08;;;6.40;99.90;;;;;;5054056;28;20175;-46
2022/12/01 06:38:11;;;;;;;31.42;16.15;;;6.40;99.90;;;;;;5036630;28;20171;-46
2022/12/01 06:40:37;;;;;;;32.28;17.83;;;6.40;99.90;;;;;;5053798;28;20210;-46
2022/12/01 06:43:02;;;;;;;39.25;19.13;;;6.40;99.90;;;;;;5053791;28;20171;-46
2022/12/01 06:45:29;;;;;;;37.83;17.25;;;6.30;99.90;;;;;;5036323;28;20266;-46
2022/12/01 06:47:56;;;;;;;32.08;16.42;;;6.30;99.90;;;;;;5035807;28;20171;-46
2022/12/01 06:50:22;;;;;;;34.38;17.60;;;6.40;99.90;;;;;;5053894;28;20277;-46
2022/12/01 06:52:48;;;;;;;35.35;17.70;;;6.40;99.90;;;;;;5053683;28;20169;-45
2022/12/01 06:55:14;;;;;;;33.58;17.52;;;6.30;99.90;;;;;;5037392;28;20190;-46
2022/12/01 06:57:39;;;;;;;39.97;18.42;;;6.40;99.90;;;;;;5072215;28;20166;-48
2022/12/01 07:00:07;;;;;;;38.30;18.83;;;6.40;99.90;;;;;;5071337;28;20210;-46
2022/12/01 07:02:33;;;;;;;38.25;18.30;;;6.40;99.90;;;;;;5052178;28;20206;-46
2022/12/01 07:04:58;;;;;;;37.60;17.73;;;6.40;99.90;;;;;;5052393;28;20221;-46
2022/12/01 07:07:25;;;;;;;36.47;18.63;;;6.40;99.90;;;;;;5050612;28;20162;-46
2022/12/01 07:09:51;;;;;;;34.83;18.15;;;6.40;99.90;;;;;;5064958;28;20194;-46
2022/12/01 07:12:16;;;;;;;42.78;18.45;;;6.40;99.90;;;;;;5071781;28;20516;-46
2022/12/01 07:14:42;;;;;;;38.03;19.58;;;6.40;99.90;;;;;;5071476;28;20166;-46
2022/12/01 07:17:08;;;;;;;35.08;18.90;;;6.50;99.90;;;;;;5071565;28;20170;-46
2022/12/01 07:19:34;;;;;;;37.60;18.00;;;6.40;99.90;;;;;;5071441;28;20174;-45
2022/12/01 07:22:05;;;;;;;39.15;17.60;;;6.40;99.90;;;;;;5071969;28;20173;-47
2022/12/01 07:24:31;;;;;;;39.88;19.58;;;6.40;99.90;;;;;;5070804;28;20194;-46
2022/12/01 07:26:56;;;;;;;38.33;20.20;;;6.40;99.90;;;;;;5071780;28;20711;-46
2022/12/01 07:29:22;;;;;;;38.20;19.48;;;6.50;99.90;;;;;;5071349;28;20319;-45
2022/12/01 07:31:47;;;;;;;44.22;19.08;;;6.50;99.90;;;;;;5070984;28;20166;-45
2022/12/01 07:34:13;;;;;;;42.08;19.02;;;6.40;99.90;;;;;;5071181;28;20252;-46
2022/12/01 07:36:39;;;;;;;40.13;19.92;;;6.50;99.90;;;;;;5053093;28;20209;-45
2022/12/01 07:39:06;;;;;;;36.08;17.42;;;6.40;99.90;;;;;;5071130;28;20172;-44
2022/12/01 07:41:32;;;;;;;43.75;21.30;;;6.40;99.90;;;;;;5070996;28;21060;-44
2022/12/01 07:43:58;;;;;;;45.60;18.85;;;6.40;99.90;;;;;;5071420;28;20170;-46
2022/12/01 07:46:25;;;;;;;41.10;18.58;;;6.60;99.90;;;;;;5071258;28;20165;-47
2022/12/01 07:48:51;;;;;;;44.65;20.45;;;6.50;99.90;;;;;;5070861;28;20197;-45
2022/12/01 07:51:17;;;;;;;27.38;15.20;;;6.50;99.90;;;;;;5068440;28;20173;-44
2022/12/01 07:53:48;;;;;;;39.42;19.70;;;6.40;99.90;;;;;;5050460;28;20170;-42
2022/12/01 07:56:13;;;;;;;38.90;20.40;;;6.40;99.90;;;;;;5050543;28;20209;-46
2022/12/01 07:58:39;;;;;;;39.67;19.75;;;6.50;99.90;;;;;;5050666;28;20535;-45
2022/12/01 08:01:07;;;;;;;45.25;21.08;;;6.60;99.90;;;;;;5050070;28;20254;-46
2022/12/01 08:03:33;;;;;;;43.72;22.67;;;6.60;99.90;;;;;;5050307;28;20170;-44
2022/12/01 08:06:00;;;;;;;50.17;23.38;;;6.60;99.90;;;;;;5065851;28;20652;-47
2022/12/01 08:08:26;;;;;;;43.47;20.67;;;6.60;99.90;;;;;;5071071;28;20166;-44
2022/12/01 08:10:52;;;;;;;42.13;20.00;;;6.50;99.90;;;;;;5070380;28;20626;-45
2022/12/01 08:13:18;;;;;;;41.35;18.80;;;6.60;99.90;;;;;;5070401;28;20174;-47
2022/12/01 08:15:44;;;;;;;35.40;19.15;;;6.50;99.90;;;;;;5070243;28;20170;-50
2022/12/01 08:18:09;;;;;;;43.30;19.00;;;6.60;99.90;;;;;;5070338;28;20177;-48
2022/12/01 08:20:35;;;;;;;41.30;18.30;;;6.60;99.90;;;;;;5069945;28;20673;-52
2022/12/01 08:23:02;;;;;;;42.05;19.35;;;6.50;99.90;;;;;;5070415;28;20204;-47
2022/12/01 08:25:28;;;;;;;38.40;18.15;;;6.70;99.90;;;;;;5070783;28;20253;-47
2022/12/01 08:27:53;;;;;;;38.95;19.30;;;6.70;99.90;;;;;;5070626;28;20162;-48
2022/12/01 08:30:19;;;;;;;43.00;19.00;;;6.60;99.90;;;;;;5052199;28;20269;-46
2022/12/01 08:32:45;;;;;;;41.97;19.67;;;6.70;99.90;;;;;;5070385;28;20162;-47
2022/12/01 08:35:10;;;;;;;39.00;18.35;;;6.60;99.90;;;;;;5070149;28;20227;-44
2022/12/01 08:37:36;;;;;;;38.83;18.33;;;6.70;99.90;;;;;;5070286;28;20601;-45
2022/12/01 08:40:01;;;;;;;34.17;17.98;;;6.70;99.90;;;;;;5070096;28;20201;-48
2022/12/01 08:42:27;;;;;;;41.90;18.58;;;6.60;99.90;;;;;;5070628;28;20170;-46
2022/12/01 08:44:52;;;;;;;40.45;18.63;;;6.70;99.90;;;;;;5070126;28;20174;-45
2022/12/01 08:47:18;;;;;;;40.70;18.85;;;6.70;99.90;;;;;;5070066;28;20286;-46
2022/12/01 08:49:43;;;;;;;38.03;18.65;;;6.60;99.90;;;;;;5070046;28;20174;-46
2022/12/01 08:52:09;;;;;;;44.13;19.30;;;6.70;99.90;;;;;;5070228;28;20166;-46
2022/12/01 08:54:35;;;;;;;42.15;18.10;;;6.80;99.90;;;;;;5069906;28;20295;-45
2022/12/01 08:57:00;;;;;;;40.28;18.63;;;6.80;99.90;;;;;;5069735;28;20165;-46
2022/12/01 08:59:26;;;;;;;40.88;18.35;;;6.80;99.90;;;;;;5056770;28;20170;-45
2022/12/01 09:01:51;;;;;;;39.22;19.05;;;6.80;99.90;;;;;;5049919;28;20226;-45
2022/12/01 09:04:23;;;;;;;36.28;18.17;;;6.90;99.90;;;;;;5049888;28;20528;-45
2022/12/01 09:06:50;;;;;;;44.15;19.13;;;6.80;99.90;;;;;;5050102;28;20174;-45
2022/12/01 09:09:20;;;;;;;38.50;17.88;;;6.80;99.90;;;;;;5050120;28;20170;-47
2022/12/01 09:11:47;;;;;;;39.97;18.13;;;6.70;99.90;;;;;;5049842;28;20173;-46
2022/12/01 09:14:15;;;;;;;41.92;19.05;;;6.70;99.90;;;;;;5049982;28;20249;-45
2022/12/01 09:16:42;;;;;;;45.85;18.45;;;6.70;99.90;;;;;;5049611;28;20171;-46
2022/12/01 09:19:09;;;;;;;42.15;19.00;;;6.70;99.90;;;;;;5049712;28;20170;-46
2022/12/01 09:21:38;;;;;;;44.90;20.75;;;6.70;99.90;;;;;;5049631;28;20218;-47
2022/12/01 09:24:06;;;;;;;43.33;20.30;;;6.70;99.90;;;;;;5049475;28;20661;-48
2022/12/01 09:26:32;;;;;;;42.20;19.63;;;6.70;99.90;;;;;;5049640;28;20261;-46
2022/12/01 09:29:03;;;;;;;43.00;20.63;;;6.60;99.90;;;;;;5049772;28;20221;-46
2022/12/01 09:31:29;;;;;;;42.45;19.38;;;6.50;99.90;;;;;;5051472;28;20648;-47
2022/12/01 09:34:07;;;;;;;42.47;20.13;;;6.60;99.90;;;;;;5053618;28;20178;-46
2022/12/01 09:36:34;;;;;;;43.38;18.92;;;6.60;99.90;;;;;;5053158;28;20154;-45
2022/12/01 09:39:00;;;;;;;44.90;21.63;;;6.70;99.90;;;;;;5053268;28;20177;-46
2022/12/01 09:41:34;;;;;;;42.22;19.67;;;6.60;99.90;;;;;;5035696;28;20214;-45
2022/12/01 09:44:04;;;;;;;45.00;20.98;;;6.70;99.90;;;;;;5053543;28;20167;-45
2022/12/01 09:46:40;;;;;;;48.78;21.77;;;6.60;99.90;;;;;;5052914;28;20178;-45
2022/12/01 09:49:15;;;;;;;53.25;22.08;;;6.70;99.90;;;;;;5053222;28;20261;-46
2022/12/01 09:51:41;;;;;;;47.65;20.73;;;6.60;99.90;;;;;;5053087;28;20228;-45
2022/12/01 09:54:11;;;;;;;45.63;19.75;;;6.70;99.90;;;;;;5053066;28;20186;-45
2022/12/01 09:56:49;;;;;;;43.95;19.42;;;6.60;99.90;;;;;;5052904;28;20581;-46
2022/12/01 09:59:23;;;;;;;42.70;20.10;;;6.60;99.90;;;;;;5053111;28;20221;-45
2022/12/01 10:01:55;;;;;;;46.75;19.90;;;6.70;99.90;;;;;;5052802;28;20210;-45
2022/12/01 10:04:39;;;;;;;49.15;20.38;;;6.70;99.90;;;;;;5052698;28;20174;-45
2022/12/01 10:07:30;;;;;;;42.08;19.00;;;6.80;99.90;;;;;;5052756;28;20224;-45
2022/12/01 10:09:58;;;;;;;44.50;20.27;;;6.80;99.90;;;;;;5015493;28;20240;-45
2022/12/01 10:12:28;;;;;;;35.42;16.90;;;6.90;99.90;;;;;;5053054;28;20174;-45
2022/12/01 10:15:36;;;;;;;47.88;20.25;;;6.90;99.90;;;;;;5067229;28;20261;-45
2022/12/01 10:18:25;;;;;;;39.53;18.83;;;7.00;99.90;;;;;;5045727;28;20177;-45
2022/12/01 10:21:05;;;;;;;42.05;19.13;;;7.00;99.90;;;;;;5072679;28;20539;-46
2022/12/01 10:23:35;;;;;;;47.35;20.95;;;7.00;99.90;;;;;;5072327;28;20181;-45
2022/12/01 10:26:13;;;;;;;39.83;18.15;;;7.00;99.90;;;;;;5072696;28;20273;-45
2022/12/01 10:28:52;;;;;;;40.65;18.25;;;7.00;99.90;;;;;;5072748;28;20173;-45
2022/12/01 10:31:27;;;;;;;41.95;18.05;;;7.10;99.90;;;;;;5072543;28;20306;-45
2022/12/01 10:34:06;;;;;;;40.17;19.58;;;7.00;99.90;;;;;;5072349;28;20197;-48
2022/12/01 10:36:33;;;;;;;31.85;18.15;;;7.00;99.90;;;;;;5072223;28;20166;-46
2022/12/01 10:39:01;;;;;;;40.55;18.45;;;7.00;99.90;;;;;;5072189;28;20649;-46
2022/12/01 10:41:30;;;;;;;38.83;19.08;;;7.00;99.90;;;;;;5072223;28;20286;-47
2022/12/01 10:43:59;;;;;;;39.38;17.88;;;7.10;99.90;;;;;;5072492;28;20181;-46
2022/12/01 10:46:35;;;;;;;36.55;17.30;;;7.10;99.90;;;;;;5072411;28;20170;-46
2022/12/01 10:49:08;;;;;;;38.05;17.45;;;7.10;99.90;;;;;;5072059;28;20177;-46
2022/12/01 10:51:51;;;;;;;38.67;16.48;;;7.10;99.90;;;;;;5053876;28;20170;-46
2022/12/01 10:54:17;;;;;;;32.80;16.30;;;7.10;99.90;;;;;;5072165;28;20170;-46
2022/12/01 10:56:46;;;;;;;25.65;13.70;;;7.20;99.90;;;;;;5071942;28;20634;-46
2022/12/01 10:59:23;;;;;;;28.80;14.60;;;7.20;99.90;;;;;;5071952;28;20192;-51
2022/12/01 11:01:49;;;;;;;27.80;13.27;;;7.20;99.90;;;;;;5071673;28;20252;-46
2022/12/01 11:04:30;;;;;;;30.23;14.13;;;7.10;99.90;;;;;;5071834;28;20634;-46
2022/12/01 11:06:56;;;;;;;32.60;14.95;;;7.20;99.90;;;;;;5055431;28;20183;-47
2022/12/01 11:09:27;;;;;;;34.65;15.52;;;7.20;99.90;;;;;;5071484;28;20166;-46
2022/12/01 11:11:59;;;;;;;32.95;15.98;;;7.20;99.90;;;;;;5071801;28;20219;-47
2022/12/01 11:14:50;;;;;;;28.02;14.18;;;7.20;99.90;;;;;;5071845;28;20185;-48
2022/12/01 11:17:29;;;;;;;18.23;8.55;;;7.30;99.90;;;;;;5071428;28;20186;-46
2022/12/01 11:19:55;;;;;;;31.17;15.48;;;7.10;99.90;;;;;;5071708;28;20197;-47
2022/12/01 11:22:27;;;;;;;22.92;11.90;;;7.00;99.90;;;;;;5071368;28;20235;-46
2022/12/01 11:24:53;;;;;;;27.70;14.25;;;7.10;99.90;;;;;;5053457;28;20406;-48
2022/12/01 11:27:28;;;;;;;31.05;13.23;;;7.00;99.90;;;;;;5071146;28;20220;-47
2022/12/01 11:29:56;;;;;;;28.23;15.65;;;6.90;99.90;;;;;;5071607;28;20165;-46
2022/12/01 11:32:24;;;;;;;28.20;13.88;;;6.90;99.90;;;;;;5071119;28;20169;-47
2022/12/01 11:34:57;;;;;;;31.85;14.65;;;6.90;99.90;;;;;;5071132;28;20173;-46
2022/12/01 11:37:31;;;;;;;30.13;15.48;;;6.90;99.90;;;;;;5071213;28;20169;-46
2022/12/01 11:40:06;;;;;;;31.50;15.30;;;6.90;99.90;;;;;;5071379;28;20207;-46
2022/12/01 11:42:33;;;;;;;27.35;13.82;;;9.80;99.90;;;;;;5070901;28;20219;-46
2022/12/01 11:45:21;;;;;;;30.25;15.07;;;6.80;99.90;;;;;;5070967;28;20166;-45
2022/12/01 11:48:22;;;;;;;27.42;13.52;;;6.80;99.90;;;;;;5070946;28;20201;-47
2022/12/01 11:51:07;;;;;;;23.05;12.27;;;6.80;99.90;;;;;;5071302;28;20850;-46
2022/12/01 11:53:38;;;;;;;29.25;12.27;;;6.80;99.90;;;;;;5069822;28;20176;-45
2022/12/01 11:56:27;;;;;;;29.42;13.80;;;6.80;99.90;;;;;;5052773;28;20173;-45
2022/12/01 11:59:11;;;;;;;26.10;13.48;;;6.80;99.90;;;;;;5070661;28;20181;-45
2022/12/01 12:01:44;;;;;;;33.22;14.38;;;6.70;99.90;;;;;;5070357;28;20689;-46
2022/12/01 12:04:21;;;;;;;27.30;15.15;;;6.90;99.90;;;;;;5070850;28;20169;-45
2022/12/01 12:07:04;;;;;;;33.83;15.30;;;6.90;99.90;;;;;;5070612;28;20170;-46
2022/12/01 12:10:07;;;;;;;26.73;15.57;;;6.80;99.90;;;;;;5070361;28;20166;-45
2022/12/01 12:12:50;;;;;;;26.27;14.48;;;6.90;99.90;;;;;;5070353;28;20205;-45
2022/12/01 12:15:40;;;;;;;30.67;15.52;;;6.80;99.90;;;;;;5070266;28;20166;-46
2022/12/01 12:18:23;;;;;;;24.95;13.32;;;6.80;99.90;;;;;;5070291;28;20170;-46
2022/12/01 12:21:06;;;;;;;26.52;14.68;;;6.80;99.90;;;;;;5070170;28;20543;-47
2022/12/01 12:23:46;;;;;;;24.88;13.15;;;6.80;99.90;;;;;;5052073;28;20519;-45
2022/12/01 12:26:33;;;;;;;28.45;16.42;;;6.80;99.90;;;;;;5070212;28;20166;-45
2022/12/01 12:29:24;;;;;;;29.75;16.45;;;6.80;99.90;;;;;;5070398;28;20162;-45
2022/12/01 12:32:16;;;;;;;31.90;15.02;;;6.80;99.90;;;;;;5070111;28;20170;-46
2022/12/01 12:35:20;;;;;;;27.85;15.05;;;6.80;99.90;;;;;;5070111;28;20622;-45
2022/12/01 12:38:24;;;;;;;29.23;13.57;;;6.90;99.90;;;;;;5065075;28;20649;-45
2022/12/01 12:41:14;;;;;;;25.73;15.38;;;6.80;99.90;;;;;;5018979;28;20214;-46
2022/12/01 12:43:46;;;;;;;31.02;15.70;;;6.90;99.90;;;;;;5069907;28;20174;-45
2022/12/01 12:46:26;;;;;;;33.13;15.98;;;7.00;99.90;;;;;;5070079;28;20166;-46
2022/12/01 12:49:25;;;;;;;31.08;17.60;;;7.00;99.90;;;;;;5069887;28;20169;-47
2022/12/01 12:51:59;;;;;;;31.88;17.50;;;7.00;99.90;;;;;;5069957;28;20162;-46
2022/12/01 12:54:45;;;;;;;26.30;14.43;;;7.10;99.90;;;;;;5070232;28;20192;-46
2022/12/01 12:57:23;;;;;;;30.40;17.67;;;7.00;99.90;;;;;;5019069;28;20186;-46
2022/12/01 13:00:00;;;;;;;31.00;17.42;;;7.10;99.90;;;;;;5069856;28;20213;-47